sensor_id;sensor_type;location;lat;lon;timestamp;pressure;altitude;pressure_sealevel;temperature;humidity
60319;BME280;46163;52.306;5.634;2022-12-18T00:00:57;102688.25;;;14.49;48.07
60319;BME280;46163;52.306;5.634;2022-12-18T00:03:22;102681.44;;;14.46;48.08
60319;BME280;46163;52.306;5.634;2022-12-18T00:05:51;102673.75;;;14.43;48.17
60319;BME280;46163;52.306;5.634;2022-12-18T00:08:18;102666.88;;;14.40;48.07
60319;BME280;46163;52.306;5.634;2022-12-18T00:10:44;102665.41;;;14.38;47.82
60319;BME280;46163;52.306;5.634;2022-12-18T00:13:11;102662.06;;;14.36;48.06
60319;BME280;46163;52.306;5.634;2022-12-18T00:15:38;102663.63;;;14.30;48.07
60319;BME280;46163;52.306;5.634;2022-12-18T00:18:04;102671.66;;;14.30;47.77
60319;BME280;46163;52.306;5.634;2022-12-18T00:20:30;102662.16;;;14.28;48.18
60319;BME280;46163;52.306;5.634;2022-12-18T00:22:55;102660.00;;;14.23;48.15
60319;BME280;46163;52.306;5.634;2022-12-18T00:25:21;102652.97;;;14.22;47.80
60319;BME280;46163;52.306;5.634;2022-12-18T00:27:47;102655.66;;;14.22;47.86
60319;BME280;46163;52.306;5.634;2022-12-18T00:30:13;102643.47;;;14.20;48.11
60319;BME280;46163;52.306;5.634;2022-12-18T00:32:39;102645.50;;;14.18;48.02
60319;BME280;46163;52.306;5.634;2022-12-18T00:35:05;102636.97;;;14.14;48.01
60319;BME280;46163;52.306;5.634;2022-12-18T00:37:33;102635.31;;;14.13;47.82
60319;BME280;46163;52.306;5.634;2022-12-18T00:39:59;102638.19;;;14.11;47.69
60319;BME280;46163;52.306;5.634;2022-12-18T00:42:24;102641.22;;;14.08;48.32
60319;BME280;46163;52.306;5.634;2022-12-18T00:45:08;102645.91;;;14.06;47.92
60319;BME280;46163;52.306;5.634;2022-12-18T00:47:34;102655.13;;;14.04;47.75
60319;BME280;46163;52.306;5.634;2022-12-18T00:49:59;102641.94;;;14.02;47.80
60319;BME280;46163;52.306;5.634;2022-12-18T00:52:25;102649.50;;;13.99;48.09
60319;BME280;46163;52.306;5.634;2022-12-18T00:54:51;102659.34;;;13.98;48.12
60319;BME280;46163;52.306;5.634;2022-12-18T00:57:16;102663.22;;;13.96;47.56
60319;BME280;46163;52.306;5.634;2022-12-18T00:59:41;102652.88;;;13.93;48.13
60319;BME280;46163;52.306;5.634;2022-12-18T01:02:07;102653.06;;;13.91;47.72
60319;BME280;46163;52.306;5.634;2022-12-18T01:04:34;102654.91;;;13.91;47.55
60319;BME280;46163;52.306;5.634;2022-12-18T01:06:59;102654.25;;;13.89;47.56
60319;BME280;46163;52.306;5.634;2022-12-18T01:09:25;102653.59;;;13.86;47.52
60319;BME280;46163;52.306;5.634;2022-12-18T01:11:51;102650.28;;;13.84;47.47
60319;BME280;46163;52.306;5.634;2022-12-18T01:14:16;102641.41;;;13.84;47.87
60319;BME280;46163;52.306;5.634;2022-12-18T01:16:42;102643.44;;;13.82;47.29
60319;BME280;46163;52.306;5.634;2022-12-18T01:19:08;102648.09;;;13.80;47.25
60319;BME280;46163;52.306;5.634;2022-12-18T01:21:33;102652.81;;;13.78;47.54
60319;BME280;46163;52.306;5.634;2022-12-18T01:23:59;102642.28;;;13.76;47.54
60319;BME280;46163;52.306;5.634;2022-12-18T01:26:25;102650.50;;;13.75;47.62
60319;BME280;46163;52.306;5.634;2022-12-18T01:28:51;102650.84;;;13.72;47.83
60319;BME280;46163;52.306;5.634;2022-12-18T01:31:23;102648.53;;;13.69;47.61
60319;BME280;46163;52.306;5.634;2022-12-18T01:33:50;102652.03;;;13.69;47.49
60319;BME280;46163;52.306;5.634;2022-12-18T01:36:54;102651.56;;;13.66;47.73
60319;BME280;46163;52.306;5.634;2022-12-18T01:39:20;102649.91;;;13.65;47.59
60319;BME280;46163;52.306;5.634;2022-12-18T01:41:46;102655.59;;;13.62;47.28
60319;BME280;46163;52.306;5.634;2022-12-18T01:44:53;102652.25;;;13.60;47.42
60319;BME280;46163;52.306;5.634;2022-12-18T01:47:41;102650.59;;;13.58;47.61
60319;BME280;46163;52.306;5.634;2022-12-18T01:50:24;102667.66;;;13.57;47.22
60319;BME280;46163;52.306;5.634;2022-12-18T01:52:54;102663.47;;;13.55;47.56
60319;BME280;46163;52.306;5.634;2022-12-18T01:55:23;102659.13;;;13.54;47.26
60319;BME280;46163;52.306;5.634;2022-12-18T01:57:52;102646.53;;;13.40;47.60
60319;BME280;46163;52.306;5.634;2022-12-18T02:00:21;102666.03;;;13.48;47.55
60319;BME280;46163;52.306;5.634;2022-12-18T02:02:47;102673.88;;;13.50;47.57
60319;BME280;46163;52.306;5.634;2022-12-18T02:05:21;102678.59;;;13.48;47.40
60319;BME280;46163;52.306;5.634;2022-12-18T02:13:13;102682.78;;;13.42;47.63
60319;BME280;46163;52.306;5.634;2022-12-18T02:18:36;102691.16;;;13.39;47.35
60319;BME280;46163;52.306;5.634;2022-12-18T02:26:36;102703.19;;;13.35;47.17
60319;BME280;46163;52.306;5.634;2022-12-18T02:29:09;102694.53;;;13.33;47.36
60319;BME280;46163;52.306;5.634;2022-12-18T02:31:40;102688.53;;;13.31;47.55
60319;BME280;46163;52.306;5.634;2022-12-18T02:34:15;102692.22;;;13.30;47.17
60319;BME280;46163;52.306;5.634;2022-12-18T02:36:43;102688.19;;;13.26;47.20
60319;BME280;46163;52.306;5.634;2022-12-18T02:39:13;102687.19;;;13.27;47.01
60319;BME280;46163;52.306;5.634;2022-12-18T02:41:41;102683.69;;;13.26;47.26
60319;BME280;46163;52.306;5.634;2022-12-18T02:44:09;102667.81;;;13.25;47.49
60319;BME280;46163;52.306;5.634;2022-12-18T02:46:39;102662.00;;;13.21;47.20
60319;BME280;46163;52.306;5.634;2022-12-18T02:52:24;102662.97;;;13.20;47.20
60319;BME280;46163;52.306;5.634;2022-12-18T03:01:03;102651.13;;;13.15;47.48
60319;BME280;46163;52.306;5.634;2022-12-18T03:03:40;102651.31;;;13.13;47.41
60319;BME280;46163;52.306;5.634;2022-12-18T03:06:12;102650.47;;;13.13;47.18
60319;BME280;46163;52.306;5.634;2022-12-18T03:08:47;102647.13;;;13.11;47.04
60319;BME280;46163;52.306;5.634;2022-12-18T03:11:14;102644.44;;;13.11;47.05
60319;BME280;46163;52.306;5.634;2022-12-18T03:13:58;102641.13;;;13.09;47.37
60319;BME280;46163;52.306;5.634;2022-12-18T03:16:28;102646.63;;;13.07;46.78
60319;BME280;46163;52.306;5.634;2022-12-18T03:19:01;102630.97;;;13.04;46.81
60319;BME280;46163;52.306;5.634;2022-12-18T03:21:30;102636.13;;;13.06;47.33
60319;BME280;46163;52.306;5.634;2022-12-18T03:23:58;102640.81;;;13.04;47.16
60319;BME280;46163;52.306;5.634;2022-12-18T03:26:25;102639.31;;;13.01;46.94
60319;BME280;46163;52.306;5.634;2022-12-18T03:28:57;102650.16;;;12.99;46.73
60319;BME280;46163;52.306;5.634;2022-12-18T03:31:26;102643.16;;;12.98;46.89
60319;BME280;46163;52.306;5.634;2022-12-18T03:33:58;102639.66;;;12.98;47.06
60319;BME280;46163;52.306;5.634;2022-12-18T03:36:26;102625.66;;;12.96;47.33
60319;BME280;46163;52.306;5.634;2022-12-18T03:38:53;102616.78;;;12.95;47.08
60319;BME280;46163;52.306;5.634;2022-12-18T03:41:32;102617.94;;;12.93;47.14
60319;BME280;46163;52.306;5.634;2022-12-18T03:50:26;102623.47;;;12.91;47.18
60319;BME280;46163;52.306;5.634;2022-12-18T03:52:37;102629.81;;;12.90;46.78
60319;BME280;46163;52.306;5.634;2022-12-18T03:55:05;102622.00;;;12.89;46.85
60319;BME280;46163;52.306;5.634;2022-12-18T03:57:32;102615.16;;;12.86;46.83
60319;BME280;46163;52.306;5.634;2022-12-18T04:00:05;102612.63;;;12.85;47.00
60319;BME280;46163;52.306;5.634;2022-12-18T04:02:32;102607.66;;;12.82;47.09
60319;BME280;46163;52.306;5.634;2022-12-18T04:05:01;102607.66;;;12.82;47.05
60319;BME280;46163;52.306;5.634;2022-12-18T04:07:30;102602.47;;;12.80;46.65
60319;BME280;46163;52.306;5.634;2022-12-18T04:09:56;102606.81;;;12.81;46.63
60319;BME280;46163;52.306;5.634;2022-12-18T04:12:28;102604.31;;;12.80;46.61
60319;BME280;46163;52.306;5.634;2022-12-18T04:14:54;102598.16;;;12.79;46.54
60319;BME280;46163;52.306;5.634;2022-12-18T04:17:20;102598.31;;;12.78;46.92
60319;BME280;46163;52.306;5.634;2022-12-18T04:19:46;102598.47;;;12.76;46.43
60319;BME280;46163;52.306;5.634;2022-12-18T04:22:12;102602.97;;;12.76;46.47
60319;BME280;46163;52.306;5.634;2022-12-18T04:24:37;102604.00;;;12.74;46.62
60319;BME280;46163;52.306;5.634;2022-12-18T04:27:05;102595.31;;;12.72;46.90
60319;BME280;46163;52.306;5.634;2022-12-18T04:29:31;102588.31;;;12.71;46.47
60319;BME280;46163;52.306;5.634;2022-12-18T04:31:56;102585.81;;;12.70;46.62
60319;BME280;46163;52.306;5.634;2022-12-18T04:34:22;102578.81;;;12.69;46.66
60319;BME280;46163;52.306;5.634;2022-12-18T04:36:48;102569.97;;;12.68;46.50
60319;BME280;46163;52.306;5.634;2022-12-18T04:39:14;102569.28;;;12.66;46.87
60319;BME280;46163;52.306;5.634;2022-12-18T04:41:39;102568.63;;;12.64;46.57
60319;BME280;46163;52.306;5.634;2022-12-18T04:44:06;102578.47;;;12.64;46.59
60319;BME280;46163;52.306;5.634;2022-12-18T04:46:32;102580.31;;;12.63;46.53
60319;BME280;46163;52.306;5.634;2022-12-18T04:48:57;102587.69;;;12.61;46.89
60319;BME280;46163;52.306;5.634;2022-12-18T04:51:23;102582.53;;;12.60;46.74
60319;BME280;46163;52.306;5.634;2022-12-18T04:53:49;102593.19;;;12.60;46.74
60319;BME280;46163;52.306;5.634;2022-12-18T04:56:15;102592.50;;;12.58;46.50
60319;BME280;46163;52.306;5.634;2022-12-18T04:58:42;102593.53;;;12.57;46.48
60319;BME280;46163;52.306;5.634;2022-12-18T05:01:10;102594.53;;;12.56;46.46
60319;BME280;46163;52.306;5.634;2022-12-18T05:03:36;102596.53;;;12.54;46.59
60319;BME280;46163;52.306;5.634;2022-12-18T05:06:03;102602.72;;;12.54;46.58
60319;BME280;46163;52.306;5.634;2022-12-18T05:08:28;102613.56;;;12.53;46.35
60319;BME280;46163;52.306;5.634;2022-12-18T05:11:12;102626.09;;;12.52;46.65
60319;BME280;46163;52.306;5.634;2022-12-18T05:13:43;102634.25;;;12.51;46.29
60319;BME280;46163;52.306;5.634;2022-12-18T05:16:10;102635.13;;;12.51;46.35
60319;BME280;46163;52.306;5.634;2022-12-18T05:18:36;102633.59;;;12.49;46.48
60319;BME280;46163;52.306;5.634;2022-12-18T05:21:02;102631.09;;;12.47;46.77
60319;BME280;46163;52.306;5.634;2022-12-18T05:23:28;102639.94;;;12.48;46.69
60319;BME280;46163;52.306;5.634;2022-12-18T05:25:59;102655.13;;;12.47;46.62
60319;BME280;46163;52.306;5.634;2022-12-18T05:28:25;102656.31;;;12.44;46.24
60319;BME280;46163;52.306;5.634;2022-12-18T05:30:53;102659.00;;;12.44;46.29
60319;BME280;46163;52.306;5.634;2022-12-18T05:33:20;102659.16;;;12.43;46.18
60319;BME280;46163;52.306;5.634;2022-12-18T05:36:12;102665.47;;;12.42;46.43
60319;BME280;46163;52.306;5.634;2022-12-18T05:38:38;102661.31;;;12.39;46.42
60319;BME280;46163;52.306;5.634;2022-12-18T05:41:05;102652.81;;;12.36;46.30
60319;BME280;46163;52.306;5.634;2022-12-18T05:43:31;102657.81;;;12.39;46.58
60319;BME280;46163;52.306;5.634;2022-12-18T05:45:57;102641.13;;;12.37;46.40
60319;BME280;46163;52.306;5.634;2022-12-18T05:48:22;102637.81;;;12.35;46.26
60319;BME280;46163;52.306;5.634;2022-12-18T05:50:49;102629.78;;;12.35;46.61
60319;BME280;46163;52.306;5.634;2022-12-18T05:53:17;102634.13;;;12.36;46.44
60319;BME280;46163;52.306;5.634;2022-12-18T05:55:43;102616.59;;;12.33;46.59
60319;BME280;46163;52.306;5.634;2022-12-18T05:58:11;102622.94;;;12.40;46.37
60319;BME280;46163;52.306;5.634;2022-12-18T06:00:38;102620.09;;;12.42;46.04
60319;BME280;46163;52.306;5.634;2022-12-18T06:03:06;102612.41;;;12.47;45.96
60319;BME280;46163;52.306;5.634;2022-12-18T06:05:40;102623.25;;;12.54;46.26
60319;BME280;46163;52.306;5.634;2022-12-18T06:08:06;102616.88;;;12.63;45.88
60319;BME280;46163;52.306;5.634;2022-12-18T06:10:32;102612.34;;;12.71;45.73
60319;BME280;46163;52.306;5.634;2022-12-18T06:12:57;102611.31;;;12.81;45.61
60319;BME280;46163;52.306;5.634;2022-12-18T06:15:23;102604.13;;;12.89;45.24
60319;BME280;46163;52.306;5.634;2022-12-18T06:17:49;102600.41;;;12.98;44.96
60319;BME280;46163;52.306;5.634;2022-12-18T06:20:18;102611.88;;;13.07;45.12
60319;BME280;46163;52.306;5.634;2022-12-18T06:22:46;102602.66;;;13.18;45.06
60319;BME280;46163;52.306;5.634;2022-12-18T06:25:12;102604.13;;;13.28;44.70
60319;BME280;46163;52.306;5.634;2022-12-18T06:27:37;102602.22;;;13.37;44.12
60319;BME280;46163;52.306;5.634;2022-12-18T06:30:03;102611.88;;;13.46;44.55
60319;BME280;46163;52.306;5.634;2022-12-18T06:32:29;102596.78;;;13.53;44.27
60319;BME280;46163;52.306;5.634;2022-12-18T06:34:54;102588.53;;;13.63;44.33
60319;BME280;46163;52.306;5.634;2022-12-18T06:37:21;102588.66;;;13.70;43.83
60319;BME280;46163;52.306;5.634;2022-12-18T06:39:49;102582.22;;;13.79;43.89
60319;BME280;46163;52.306;5.634;2022-12-18T06:42:14;102574.31;;;13.85;43.58
60319;BME280;46163;52.306;5.634;2022-12-18T06:44:40;102566.22;;;13.94;43.79
60319;BME280;46163;52.306;5.634;2022-12-18T06:47:05;102569.19;;;13.99;43.22
60319;BME280;46163;52.306;5.634;2022-12-18T06:49:31;102560.22;;;14.06;43.41
60319;BME280;46163;52.306;5.634;2022-12-18T06:51:57;102562.19;;;14.12;43.13
60319;BME280;46163;52.306;5.634;2022-12-18T06:54:22;102547.78;;;14.13;43.01
60319;BME280;46163;52.306;5.634;2022-12-18T06:56:49;102549.03;;;14.26;43.01
60319;BME280;46163;52.306;5.634;2022-12-18T06:59:14;102556.16;;;14.33;43.04
60319;BME280;46163;52.306;5.634;2022-12-18T07:01:40;102547.53;;;14.38;42.72
60319;BME280;46163;52.306;5.634;2022-12-18T07:04:06;102547.84;;;14.43;42.74
60319;BME280;46163;52.306;5.634;2022-12-18T07:06:31;102538.09;;;14.42;42.66
60319;BME280;46163;52.306;5.634;2022-12-18T07:08:56;102550.06;;;14.54;42.57
60319;BME280;46163;52.306;5.634;2022-12-18T07:11:22;102544.16;;;14.59;42.73
60319;BME280;46163;52.306;5.634;2022-12-18T07:13:48;102537.59;;;14.61;42.63
60319;BME280;46163;52.306;5.634;2022-12-18T07:16:18;102547.41;;;14.69;42.29
60319;BME280;46163;52.306;5.634;2022-12-18T07:18:44;102546.00;;;14.73;42.36
60319;BME280;46163;52.306;5.634;2022-12-18T07:21:13;102539.41;;;14.76;42.38
60319;BME280;46163;52.306;5.634;2022-12-18T07:23:40;102533.50;;;14.80;42.49
60319;BME280;46163;52.306;5.634;2022-12-18T07:26:07;102528.16;;;14.80;42.71
60319;BME280;46163;52.306;5.634;2022-12-18T07:28:35;102529.25;;;14.86;42.74
60319;BME280;46163;52.306;5.634;2022-12-18T07:31:05;102543.56;;;14.93;42.66
60319;BME280;46163;52.306;5.634;2022-12-18T07:33:32;102541.97;;;14.98;42.71
60319;BME280;46163;52.306;5.634;2022-12-18T07:36:08;102538.09;;;15.01;42.71
60319;BME280;46163;52.306;5.634;2022-12-18T07:38:35;102537.72;;;15.04;42.76
60319;BME280;46163;52.306;5.634;2022-12-18T07:41:02;102534.25;;;15.10;42.39
60319;BME280;46163;52.306;5.634;2022-12-18T07:43:28;102526.06;;;15.12;42.49
60319;BME280;46163;52.306;5.634;2022-12-18T07:45:54;102523.81;;;15.15;42.45
60319;BME280;46163;52.306;5.634;2022-12-18T07:48:22;102517.88;;;15.20;42.51
60319;BME280;46163;52.306;5.634;2022-12-18T07:50:47;102496.41;;;15.20;42.44
60319;BME280;46163;52.306;5.634;2022-12-18T07:53:14;102495.41;;;15.21;42.49
60319;BME280;46163;52.306;5.634;2022-12-18T07:55:40;102492.16;;;15.25;42.49
60319;BME280;46163;52.306;5.634;2022-12-18T07:58:07;102485.75;;;15.26;42.54
60319;BME280;46163;52.306;5.634;2022-12-18T08:00:33;102481.69;;;15.31;42.47
60319;BME280;46163;52.306;5.634;2022-12-18T08:02:59;102485.25;;;15.38;42.42
60319;BME280;46163;52.306;5.634;2022-12-18T08:05:25;102489.22;;;15.42;42.27
60319;BME280;46163;52.306;5.634;2022-12-18T08:07:51;102497.06;;;15.43;42.26
60319;BME280;46163;52.306;5.634;2022-12-18T08:10:17;102484.09;;;15.47;42.20
60319;BME280;46163;52.306;5.634;2022-12-18T08:12:42;102476.88;;;15.47;42.24
60319;BME280;46163;52.306;5.634;2022-12-18T08:15:08;102468.19;;;15.45;42.26
60319;BME280;46163;52.306;5.634;2022-12-18T08:17:34;102463.91;;;15.51;42.28
60319;BME280;46163;52.306;5.634;2022-12-18T08:19:59;102458.78;;;15.56;42.20
60319;BME280;46163;52.306;5.634;2022-12-18T08:22:25;102473.66;;;15.59;42.38
60319;BME280;46163;52.306;5.634;2022-12-18T08:24:50;102472.00;;;15.58;42.44
60319;BME280;46163;52.306;5.634;2022-12-18T08:27:15;102471.28;;;15.64;42.25
60319;BME280;46163;52.306;5.634;2022-12-18T08:29:41;102471.44;;;15.62;42.26
60319;BME280;46163;52.306;5.634;2022-12-18T08:32:06;102469.66;;;15.69;42.39
60319;BME280;46163;52.306;5.634;2022-12-18T08:34:32;102463.06;;;15.72;42.33
60319;BME280;46163;52.306;5.634;2022-12-18T08:36:58;102478.34;;;15.71;42.26
60319;BME280;46163;52.306;5.634;2022-12-18T08:39:23;102475.91;;;15.76;42.24
60319;BME280;46163;52.306;5.634;2022-12-18T08:41:49;102486.44;;;15.78;42.24
60319;BME280;46163;52.306;5.634;2022-12-18T08:44:34;102503.19;;;15.80;42.27
60319;BME280;46163;52.306;5.634;2022-12-18T08:47:05;102504.47;;;15.84;42.09
60319;BME280;46163;52.306;5.634;2022-12-18T08:49:31;102510.03;;;15.82;42.27
60319;BME280;46163;52.306;5.634;2022-12-18T08:51:57;102503.22;;;15.87;42.25
60319;BME280;46163;52.306;5.634;2022-12-18T08:54:23;102508.47;;;15.95;42.32
60319;BME280;46163;52.306;5.634;2022-12-18T08:56:49;102504.53;;;15.97;42.37
60319;BME280;46163;52.306;5.634;2022-12-18T08:59:16;102495.50;;;16.05;42.42
60319;BME280;46163;52.306;5.634;2022-12-18T09:01:41;102494.94;;;16.09;42.62
60319;BME280;46163;52.306;5.634;2022-12-18T09:04:08;102502.59;;;16.13;42.49
60319;BME280;46163;52.306;5.634;2022-12-18T09:06:34;102491.91;;;16.19;42.45
60319;BME280;46163;52.306;5.634;2022-12-18T09:09:09;102491.91;;;16.19;42.38
60319;BME280;46163;52.306;5.634;2022-12-18T09:11:34;102487.78;;;16.23;42.37
60319;BME280;46163;52.306;5.634;2022-12-18T09:14:01;102478.69;;;16.24;42.25
60319;BME280;46163;52.306;5.634;2022-12-18T09:16:28;102479.13;;;16.28;42.27
60319;BME280;46163;52.306;5.634;2022-12-18T09:18:58;102474.78;;;16.27;42.21
60319;BME280;46163;52.306;5.634;2022-12-18T09:21:36;102481.22;;;16.32;42.17
60319;BME280;46163;52.306;5.634;2022-12-18T09:24:04;102491.56;;;16.35;42.01
60319;BME280;46163;52.306;5.634;2022-12-18T09:26:30;102495.50;;;16.39;41.82
60319;BME280;46163;52.306;5.634;2022-12-18T09:28:56;102497.56;;;16.37;41.93
60319;BME280;46163;52.306;5.634;2022-12-18T09:31:23;102489.75;;;16.43;41.80
60319;BME280;46163;52.306;5.634;2022-12-18T09:33:50;102483.78;;;16.47;41.94
60319;BME280;46163;52.306;5.634;2022-12-18T09:36:17;102480.88;;;16.49;42.01
60319;BME280;46163;52.306;5.634;2022-12-18T09:38:43;102479.22;;;16.48;41.98
60319;BME280;46163;52.306;5.634;2022-12-18T09:41:41;102481.31;;;16.52;41.76
60319;BME280;46163;52.306;5.634;2022-12-18T09:44:22;102491.88;;;16.54;42.03
60319;BME280;46163;52.306;5.634;2022-12-18T09:46:50;102485.47;;;16.55;41.80
60319;BME280;46163;52.306;5.634;2022-12-18T09:49:18;102479.69;;;16.58;41.93
60319;BME280;46163;52.306;5.634;2022-12-18T09:54:42;102458.41;;;16.63;42.17
60319;BME280;46163;52.306;5.634;2022-12-18T09:57:19;102454.28;;;16.67;42.10
60319;BME280;46163;52.306;5.634;2022-12-18T09:59:56;102447.91;;;16.68;42.10
60319;BME280;46163;52.306;5.634;2022-12-18T10:02:24;102447.09;;;16.74;42.29
60319;BME280;46163;52.306;5.634;2022-12-18T10:05:07;102442.97;;;16.72;42.48
60319;BME280;46163;52.306;5.634;2022-12-18T10:08:23;102433.44;;;16.76;42.54
60319;BME280;46163;52.306;5.634;2022-12-18T10:10:51;102433.47;;;16.82;42.26
60319;BME280;46163;52.306;5.634;2022-12-18T10:16:16;102423.13;;;16.79;42.13
60319;BME280;46163;52.306;5.634;2022-12-18T10:21:54;102419.81;;;16.84;42.19
60319;BME280;46163;52.306;5.634;2022-12-18T10:24:41;102430.41;;;16.85;41.80
60319;BME280;46163;52.306;5.634;2022-12-18T10:27:14;102410.31;;;16.88;41.76
60319;BME280;46163;52.306;5.634;2022-12-18T10:29:42;102410.75;;;16.91;41.79
60319;BME280;46163;52.306;5.634;2022-12-18T10:32:18;102404.31;;;16.92;41.41
60319;BME280;46163;52.306;5.634;2022-12-18T10:34:50;102394.59;;;16.91;41.42
60319;BME280;46163;52.306;5.634;2022-12-18T10:37:19;102398.94;;;16.92;41.59
60319;BME280;46163;52.306;5.634;2022-12-18T10:39:46;102391.53;;;16.94;41.40
60319;BME280;46163;52.306;5.634;2022-12-18T10:42:29;102383.47;;;16.94;41.51
60319;BME280;46163;52.306;5.634;2022-12-18T10:45:07;102382.19;;;16.90;41.56
60319;BME280;46163;52.306;5.634;2022-12-18T10:47:33;102383.63;;;16.93;41.38
60319;BME280;46163;52.306;5.634;2022-12-18T10:49:59;102387.78;;;16.95;41.60
60319;BME280;46163;52.306;5.634;2022-12-18T10:52:28;102397.09;;;17.00;41.46
60319;BME280;46163;52.306;5.634;2022-12-18T10:55:03;102411.97;;;17.02;41.49
60319;BME280;46163;52.306;5.634;2022-12-18T10:57:35;102411.97;;;17.02;41.63
60319;BME280;46163;52.306;5.634;2022-12-18T11:00:22;102403.31;;;17.07;41.94
60319;BME280;46163;52.306;5.634;2022-12-18T11:02:48;102395.25;;;17.07;41.86
60319;BME280;46163;52.306;5.634;2022-12-18T11:05:32;102392.97;;;17.04;41.88
60319;BME280;46163;52.306;5.634;2022-12-18T11:07:59;102378.28;;;17.00;42.68
60319;BME280;46163;52.306;5.634;2022-12-18T11:10:32;102380.97;;;17.06;43.00
60319;BME280;46163;52.306;5.634;2022-12-18T11:13:17;102377.03;;;17.09;42.93
60319;BME280;46163;52.306;5.634;2022-12-18T11:15:44;102385.31;;;17.07;43.04
60319;BME280;46163;52.306;5.634;2022-12-18T11:18:36;102372.69;;;17.08;43.39
60319;BME280;46163;52.306;5.634;2022-12-18T11:21:24;102362.53;;;17.10;43.56
60319;BME280;46163;52.306;5.634;2022-12-18T11:23:50;102338.16;;;17.05;43.35
60319;BME280;46163;52.306;5.634;2022-12-18T11:26:17;102353.03;;;17.14;43.60
60319;BME280;46163;52.306;5.634;2022-12-18T11:31:28;102334.81;;;17.22;43.55
60319;BME280;46163;52.306;5.634;2022-12-18T11:36:38;102337.91;;;17.19;43.19
60319;BME280;46163;52.306;5.634;2022-12-18T11:39:38;102350.31;;;17.27;42.77
60319;BME280;46163;52.306;5.634;2022-12-18T11:47:15;102330.44;;;17.28;42.66
60319;BME280;46163;52.306;5.634;2022-12-18T11:49:49;102319.50;;;17.30;42.42
60319;BME280;46163;52.306;5.634;2022-12-18T11:54:40;102339.56;;;17.27;42.38
60319;BME280;46163;52.306;5.634;2022-12-18T12:00:15;102316.81;;;17.23;42.71
60319;BME280;46163;52.306;5.634;2022-12-18T12:08:31;102278.34;;;17.16;43.40
60319;BME280;46163;52.306;5.634;2022-12-18T12:16:15;102269.84;;;17.19;44.63
60319;BME280;46163;52.306;5.634;2022-12-18T12:24:26;102275.41;;;17.24;43.94
60319;BME280;46163;52.306;5.634;2022-12-18T12:27:22;102276.69;;;17.21;44.06
60319;BME280;46163;52.306;5.634;2022-12-18T12:30:06;102265.69;;;17.23;43.91
60319;BME280;46163;52.306;5.634;2022-12-18T12:40:56;102257.41;;;17.38;44.77
60319;BME280;46163;52.306;5.634;2022-12-18T12:43:32;102251.81;;;17.39;44.91
60319;BME280;46163;52.306;5.634;2022-12-18T12:51:11;102228.78;;;17.43;45.56
60319;BME280;46163;52.306;5.634;2022-12-18T12:53:39;102220.94;;;17.42;45.61
60319;BME280;46163;52.306;5.634;2022-12-18T12:56:05;102232.31;;;17.44;45.55
60319;BME280;46163;52.306;5.634;2022-12-18T13:04:36;102219.28;;;17.47;45.16
60319;BME280;46163;52.306;5.634;2022-12-18T13:07:15;102221.31;;;17.45;45.08
60319;BME280;46163;52.306;5.634;2022-12-18T13:12:57;102228.38;;;17.46;45.15
60319;BME280;46163;52.306;5.634;2022-12-18T13:15:43;102227.75;;;17.44;45.20
60319;BME280;46163;52.306;5.634;2022-12-18T13:20:50;102224.44;;;17.42;45.34
60319;BME280;46163;52.306;5.634;2022-12-18T13:23:29;102219.69;;;17.44;44.89
60319;BME280;46163;52.306;5.634;2022-12-18T13:26:27;102215.75;;;17.47;44.99
60319;BME280;46163;52.306;5.634;2022-12-18T13:33:39;102220.44;;;17.65;44.52
60319;BME280;46163;52.306;5.634;2022-12-18T13:38:42;102212.53;;;17.76;43.59
60319;BME280;46163;52.306;5.634;2022-12-18T13:43:46;102192.00;;;17.82;43.28
60319;BME280;46163;52.306;5.634;2022-12-18T13:51:41;102185.91;;;18.00;43.05
60319;BME280;46163;52.306;5.634;2022-12-18T13:54:19;102178.19;;;18.03;42.79
60319;BME280;46163;52.306;5.634;2022-12-18T13:56:47;102161.44;;;18.01;42.66
60319;BME280;46163;52.306;5.634;2022-12-18T14:01:56;102161.59;;;18.06;42.59
60319;BME280;46163;52.306;5.634;2022-12-18T14:04:32;102152.53;;;18.01;42.58
60319;BME280;46163;52.306;5.634;2022-12-18T14:07:28;102155.63;;;17.98;42.91
60319;BME280;46163;52.306;5.634;2022-12-18T14:09:57;102154.66;;;17.92;42.71
60319;BME280;46163;52.306;5.634;2022-12-18T14:12:31;102146.16;;;17.89;42.90
60319;BME280;46163;52.306;5.634;2022-12-18T14:20:19;102136.53;;;17.74;43.30
60319;BME280;46163;52.306;5.634;2022-12-18T14:22:47;102128.25;;;17.69;43.22
60319;BME280;46163;52.306;5.634;2022-12-18T14:27:47;102114.63;;;17.64;43.46
60319;BME280;46163;52.306;5.634;2022-12-18T14:30:36;102109.06;;;17.59;43.62
60319;BME280;46163;52.306;5.634;2022-12-18T14:33:13;102110.53;;;17.55;43.59
60319;BME280;46163;52.306;5.634;2022-12-18T14:38:41;102107.22;;;17.53;43.46
60319;BME280;46163;52.306;5.634;2022-12-18T14:41:12;102100.19;;;17.52;43.75
60319;BME280;46163;52.306;5.634;2022-12-18T14:43:43;102097.72;;;17.50;43.88
60319;BME280;46163;52.306;5.634;2022-12-18T14:46:36;102093.97;;;17.51;43.84
60319;BME280;46163;52.306;5.634;2022-12-18T14:51:54;102084.13;;;17.39;43.88
60319;BME280;46163;52.306;5.634;2022-12-18T14:54:22;102084.31;;;17.37;43.97
60319;BME280;46163;52.306;5.634;2022-12-18T14:56:51;102076.66;;;17.41;44.11
60319;BME280;46163;52.306;5.634;2022-12-18T14:59:23;102072.09;;;17.41;43.81
60319;BME280;46163;52.306;5.634;2022-12-18T15:07:42;102075.84;;;17.40;43.51
60319;BME280;46163;52.306;5.634;2022-12-18T15:10:15;102066.13;;;17.39;42.86
60319;BME280;46163;52.306;5.634;2022-12-18T15:13:19;102072.69;;;17.43;42.71
60319;BME280;46163;52.306;5.634;2022-12-18T15:20:54;102062.94;;;17.49;41.97
60319;BME280;46163;52.306;5.634;2022-12-18T15:23:27;102067.28;;;17.50;41.85